Time;durP1;ratioP1;P1;durP2;ratioP2;P2;SDS_P1;SDS_P2;PMS_P1;PMS_P2;Temp;Humidity;BMP_temperature;BMP_pressure;BME280_temperature;BME280_humidity;BME280_pressure;Samples;Min_cycle;Max_cycle;Signal;HPM_P1;HPM_P2
2023/05/21 00:01:42;;;;;;;7.07;4.80;;;13.20;99.90;;;;;;5092934;28;20227;-82
2023/05/21 00:04:10;;;;;;;8.67;4.73;;;13.20;99.90;;;;;;5093528;28;20283;-83
2023/05/21 00:06:37;;;;;;;9.10;5.10;;;13.20;99.90;;;;;;5092598;28;20231;-82
2023/05/21 00:09:06;;;;;;;9.23;5.07;;;13.20;99.90;;;;;;5093174;28;20676;-80
2023/05/21 00:11:33;;;;;;;7.10;4.70;;;13.20;99.90;;;;;;5093587;28;20211;-80
2023/05/21 00:14:00;;;;;;;7.30;5.03;;;13.10;99.90;;;;;;5093019;28;20215;-80
2023/05/21 00:16:27;;;;;;;11.80;5.20;;;13.10;99.90;;;;;;5101680;28;20239;-80
2023/05/21 00:18:54;;;;;;;12.80;5.70;;;13.10;99.90;;;;;;5113261;28;20232;-81
2023/05/21 00:21:21;;;;;;;9.40;5.27;;;13.10;99.90;;;;;;5113348;28;20195;-81
2023/05/21 00:23:49;;;;;;;6.47;4.77;;;13.10;99.90;;;;;;5113057;28;20278;-81
2023/05/21 00:26:17;;;;;;;7.80;4.80;;;13.00;99.90;;;;;;5111910;28;20236;-81
2023/05/21 00:28:44;;;;;;;10.00;5.07;;;13.00;99.90;;;;;;5112655;28;20215;-82
2023/05/21 00:31:11;;;;;;;8.37;5.10;;;13.00;99.90;;;;;;5113621;28;20206;-81
2023/05/21 00:33:38;;;;;;;8.27;5.63;;;13.00;99.90;;;;;;5104485;28;20334;-80
2023/05/21 00:36:06;;;;;;;7.83;5.27;;;13.00;99.90;;;;;;5092506;28;20272;-80
2023/05/21 00:38:33;;;;;;;8.03;4.87;;;13.00;99.90;;;;;;5092907;28;20196;-82
2023/05/21 00:41:01;;;;;;;8.77;5.27;;;13.00;99.90;;;;;;5093104;28;20223;-81
2023/05/21 00:43:31;;;;;;;7.63;5.40;;;13.00;99.90;;;;;;5095270;28;20582;-80
2023/05/21 00:45:58;;;;;;;7.67;5.27;;;13.00;99.90;;;;;;5112985;28;20192;-82
2023/05/21 00:48:25;;;;;;;9.10;5.97;;;13.00;99.90;;;;;;5106350;28;20208;-81
2023/05/21 00:50:53;;;;;;;6.20;4.97;;;13.00;99.90;;;;;;5093064;28;20303;-81
2023/05/21 00:53:20;;;;;;;7.17;5.80;;;13.00;99.90;;;;;;5092704;28;20556;-80
2023/05/21 00:55:47;;;;;;;6.47;5.37;;;13.10;99.90;;;;;;5092141;28;20200;-81
2023/05/21 00:58:16;;;;;;;8.37;5.47;;;13.10;99.90;;;;;;5092692;28;20197;-81
2023/05/21 01:00:45;;;;;;;7.67;5.80;;;13.20;99.90;;;;;;5092821;28;20501;-81
2023/05/21 01:03:13;;;;;;;9.17;5.87;;;13.20;99.90;;;;;;5094690;28;20279;-82
2023/05/21 01:05:43;;;;;;;9.80;6.03;;;13.20;99.90;;;;;;5096555;28;20200;-82
2023/05/21 01:08:11;;;;;;;10.10;5.20;;;13.20;99.90;;;;;;5096116;28;20213;-82
2023/05/21 01:10:38;;;;;;;9.47;5.97;;;13.20;99.90;;;;;;5098354;28;20193;-80
2023/05/21 01:13:05;;;;;;;7.90;5.77;;;13.20;99.90;;;;;;5116494;28;20471;-82
2023/05/21 01:15:32;;;;;;;7.87;5.80;;;13.20;99.90;;;;;;5108454;28;20204;-81
2023/05/21 01:18:00;;;;;;;10.33;5.70;;;13.20;99.90;;;;;;5096338;28;20497;-82
2023/05/21 01:20:30;;;;;;;8.00;5.37;;;13.20;99.90;;;;;;5096640;28;20205;-82
2023/05/21 01:22:59;;;;;;;8.47;5.80;;;13.30;99.90;;;;;;5096114;28;20224;-83
2023/05/21 01:25:26;;;;;;;6.80;5.43;;;13.30;99.90;;;;;;5095525;28;20224;-81
2023/05/21 01:27:53;;;;;;;13.60;6.63;;;13.30;99.90;;;;;;5096254;28;20254;-82
2023/05/21 01:30:22;;;;;;;7.40;4.90;;;13.40;99.90;;;;;;5096343;28;20197;-84
2023/05/21 01:32:56;;;;;;;11.27;6.70;;;13.40;99.90;;;;;;5096204;28;20266;-79
2023/05/21 01:35:27;;;;;;;7.10;5.60;;;13.40;99.90;;;;;;5097058;28;20184;-81
2023/05/21 01:38:04;;;;;;;7.10;5.53;;;13.40;99.90;;;;;;5116250;28;20514;-82
2023/05/21 01:40:37;;;;;;;9.90;5.83;;;13.50;99.90;;;;;;5116400;28;20211;-81
2023/05/21 01:43:05;;;;;;;8.57;5.90;;;13.50;99.90;;;;;;5116140;28;20270;-83
2023/05/21 01:45:34;;;;;;;10.47;6.63;;;13.40;99.90;;;;;;5115742;28;20513;-82
2023/05/21 01:48:01;;;;;;;8.13;5.33;;;13.50;99.90;;;;;;5116145;28;20196;-81
2023/05/21 01:50:30;;;;;;;6.67;5.37;;;13.50;99.90;;;;;;5112448;28;20276;-81
2023/05/21 01:52:59;;;;;;;10.37;5.93;;;13.50;99.90;;;;;;5095596;28;20197;-81
2023/05/21 01:55:29;;;;;;;7.77;5.93;;;13.50;99.90;;;;;;5077781;28;20206;-83
2023/05/21 01:57:57;;;;;;;8.03;6.10;;;13.50;99.90;;;;;;5095567;28;20196;-82
2023/05/21 02:00:27;;;;;;;8.07;5.40;;;13.50;99.90;;;;;;5095267;28;20323;-82
2023/05/21 02:02:54;;;;;;;7.97;6.30;;;13.60;99.90;;;;;;5095528;28;20270;-81
2023/05/21 02:05:21;;;;;;;7.57;6.10;;;13.60;99.90;;;;;;5095057;28;20223;-83
2023/05/21 02:07:48;;;;;;;8.20;5.87;;;13.60;99.90;;;;;;5094489;28;20203;-82
2023/05/21 02:10:15;;;;;;;8.60;6.03;;;13.60;99.90;;;;;;5095877;28;20224;-82
2023/05/21 02:12:44;;;;;;;12.67;6.50;;;13.60;99.90;;;;;;5095433;28;20207;-82
2023/05/21 02:15:13;;;;;;;9.13;5.87;;;13.70;99.90;;;;;;5095075;28;20605;-80
2023/05/21 02:17:41;;;;;;;9.63;6.10;;;13.70;99.90;;;;;;5094811;28;20581;-82
2023/05/21 02:20:11;;;;;;;10.73;6.37;;;13.70;99.90;;;;;;5094563;28;20196;-83
2023/05/21 02:22:38;;;;;;;7.47;6.10;;;13.70;99.90;;;;;;5095156;28;20224;-81
2023/05/21 02:25:07;;;;;;;7.70;6.40;;;13.70;99.90;;;;;;5094885;28;20220;-82
2023/05/21 02:27:35;;;;;;;8.03;6.23;;;13.70;99.90;;;;;;5094179;28;20246;-83
2023/05/21 02:30:06;;;;;;;9.10;6.57;;;13.70;99.90;;;;;;5095038;28;20579;-82
2023/05/21 02:32:33;;;;;;;7.57;6.07;;;13.80;99.90;;;;;;5095339;28;20254;-82
2023/05/21 02:35:00;;;;;;;7.40;5.43;;;13.80;99.90;;;;;;5094166;28;20204;-82
2023/05/21 02:37:27;;;;;;;7.53;5.10;;;13.80;99.90;;;;;;5095148;28;20200;-82
2023/05/21 02:39:54;;;;;;;7.90;6.73;;;13.80;99.90;;;;;;5094778;28;20188;-82
2023/05/21 02:42:22;;;;;;;8.43;6.00;;;13.90;99.90;;;;;;5094503;28;20196;-81
2023/05/21 02:44:49;;;;;;;8.73;5.73;;;13.90;99.90;;;;;;5094548;28;20238;-83
2023/05/21 02:47:18;;;;;;;7.03;5.70;;;13.90;99.90;;;;;;5094912;28;20616;-82
2023/05/21 02:49:45;;;;;;;8.17;6.10;;;13.90;99.90;;;;;;5104131;28;20755;-82
2023/05/21 02:52:12;;;;;;;7.40;5.90;;;13.80;99.90;;;;;;5114905;28;20605;-82
2023/05/21 02:54:39;;;;;;;8.60;6.03;;;13.80;99.90;;;;;;5115152;28;20210;-82
2023/05/21 02:57:06;;;;;;;8.87;6.33;;;13.80;99.90;;;;;;5114812;28;20200;-82
2023/05/21 02:59:32;;;;;;;7.53;5.57;;;13.80;99.90;;;;;;5100754;28;20204;-82
2023/05/21 03:01:59;;;;;;;8.90;6.40;;;13.80;99.90;;;;;;5114878;28;20606;-82
2023/05/21 03:04:28;;;;;;;7.90;6.03;;;13.80;99.90;;;;;;5114591;28;20212;-82
2023/05/21 03:06:55;;;;;;;9.30;6.17;;;13.90;99.90;;;;;;5114272;28;20199;-82
2023/05/21 03:09:22;;;;;;;6.13;5.53;;;13.90;99.90;;;;;;5098333;28;20300;-81
2023/05/21 03:11:49;;;;;;;6.00;5.40;;;13.90;99.90;;;;;;5094267;28;20197;-82
2023/05/21 03:14:16;;;;;;;9.37;5.53;;;13.90;99.90;;;;;;5093947;28;20625;-81
2023/05/21 03:16:43;;;;;;;8.40;6.10;;;13.90;99.90;;;;;;5093555;28;20235;-83
2023/05/21 03:19:11;;;;;;;7.83;6.77;;;13.90;99.90;;;;;;5094028;28;20250;-80
2023/05/21 03:21:39;;;;;;;8.10;5.60;;;13.90;99.90;;;;;;5093881;28;20246;-82
2023/05/21 03:24:06;;;;;;;7.27;6.37;;;13.90;99.90;;;;;;5093225;28;20248;-81
2023/05/21 03:26:33;;;;;;;7.33;6.33;;;13.90;99.90;;;;;;5092780;28;20232;-81
2023/05/21 03:29:01;;;;;;;8.60;7.03;;;13.90;99.90;;;;;;5093740;28;20214;-81
2023/05/21 03:31:28;;;;;;;8.10;6.20;;;13.90;99.90;;;;;;5093401;28;20204;-82
2023/05/21 03:33:55;;;;;;;9.27;6.27;;;13.90;99.90;;;;;;5093784;28;20670;-81
2023/05/21 03:36:21;;;;;;;8.73;6.23;;;14.00;99.90;;;;;;5092945;28;20212;-82
2023/05/21 03:38:50;;;;;;;9.07;6.73;;;14.00;99.90;;;;;;5093348;28;20279;-81
2023/05/21 03:41:17;;;;;;;10.27;6.77;;;14.00;99.90;;;;;;5112121;28;20220;-81
2023/05/21 03:43:43;;;;;;;6.57;5.67;;;14.00;99.90;;;;;;5113443;28;20538;-82
2023/05/21 03:46:10;;;;;;;6.80;6.10;;;14.00;99.90;;;;;;5108407;28;20291;-81
2023/05/21 03:48:37;;;;;;;8.00;6.13;;;14.10;99.90;;;;;;5093505;28;20279;-80
2023/05/21 03:51:04;;;;;;;6.83;5.70;;;14.10;99.90;;;;;;5093796;28;20581;-81
2023/05/21 03:53:34;;;;;;;8.60;6.83;;;14.10;99.90;;;;;;5093380;28;20288;-82
2023/05/21 03:56:02;;;;;;;7.67;6.27;;;14.10;99.90;;;;;;5094043;28;20196;-81
2023/05/21 03:58:29;;;;;;;9.27;6.57;;;14.10;99.90;;;;;;5092988;28;20224;-81
2023/05/21 04:00:56;;;;;;;6.97;6.03;;;14.00;99.90;;;;;;5092938;28;20307;-80
2023/05/21 04:03:22;;;;;;;7.93;6.17;;;14.10;99.90;;;;;;5093313;28;20325;-83
2023/05/21 04:05:49;;;;;;;10.37;5.97;;;14.10;99.90;;;;;;5101830;28;20666;-82
2023/05/21 04:08:16;;;;;;;6.57;5.80;;;14.10;99.90;;;;;;5113684;28;20261;-82
2023/05/21 04:10:43;;;;;;;6.93;5.27;;;14.10;99.90;;;;;;5113941;28;20580;-81
2023/05/21 04:13:11;;;;;;;7.57;6.47;;;14.20;99.90;;;;;;5113307;28;20290;-83
2023/05/21 04:15:38;;;;;;;8.23;5.93;;;14.20;99.90;;;;;;5112997;28;20216;-82
2023/05/21 04:18:05;;;;;;;8.63;5.40;;;14.20;99.90;;;;;;5113028;28;20198;-82
2023/05/21 04:20:32;;;;;;;9.27;6.07;;;14.10;99.90;;;;;;5096033;28;20608;-80
2023/05/21 04:22:59;;;;;;;11.63;6.80;;;14.20;99.90;;;;;;5093265;28;20200;-80
2023/05/21 04:25:26;;;;;;;9.70;6.03;;;14.20;99.90;;;;;;5092335;28;20299;-82
2023/05/21 04:27:53;;;;;;;7.50;6.03;;;14.20;99.90;;;;;;5092356;28;20189;-81
2023/05/21 04:30:22;;;;;;;6.10;5.50;;;14.20;99.90;;;;;;5092510;28;20644;-82
2023/05/21 04:32:51;;;;;;;9.33;7.10;;;14.20;99.90;;;;;;5093037;28;20204;-83
2023/05/21 04:35:18;;;;;;;7.97;6.10;;;14.20;99.90;;;;;;5092056;28;20288;-81
2023/05/21 04:37:45;;;;;;;6.43;5.83;;;14.20;99.90;;;;;;5094426;28;20228;-81
2023/05/21 04:40:16;;;;;;;7.67;5.83;;;14.20;99.90;;;;;;5097162;28;20204;-80
2023/05/21 04:42:44;;;;;;;8.30;6.20;;;14.20;99.90;;;;;;5108658;28;20219;-82
2023/05/21 04:45:11;;;;;;;7.60;5.97;;;14.30;99.90;;;;;;5117035;28;20318;-82
2023/05/21 04:47:39;;;;;;;10.83;6.37;;;14.30;99.90;;;;;;5112571;28;20516;-81
2023/05/21 04:50:07;;;;;;;6.50;5.73;;;14.30;99.90;;;;;;5096555;28;20286;-81
2023/05/21 04:52:34;;;;;;;8.23;6.13;;;14.30;99.90;;;;;;5097027;28;20675;-82
2023/05/21 04:55:01;;;;;;;8.23;6.27;;;14.30;99.90;;;;;;5107037;28;20204;-83
2023/05/21 04:57:29;;;;;;;9.73;5.80;;;14.40;99.90;;;;;;5117125;28;20600;-82
2023/05/21 04:59:56;;;;;;;6.27;5.67;;;14.30;99.90;;;;;;5106863;28;20200;-81
2023/05/21 05:02:23;;;;;;;5.93;5.43;;;14.40;99.90;;;;;;5095831;28;20291;-83
2023/05/21 05:04:51;;;;;;;8.30;6.27;;;14.40;99.90;;;;;;5113647;28;20315;-81
2023/05/21 05:07:18;;;;;;;7.40;6.40;;;14.50;99.90;;;;;;5116751;28;20282;-80
2023/05/21 05:09:45;;;;;;;6.87;5.40;;;14.50;99.90;;;;;;5111921;28;20215;-82
2023/05/21 05:12:12;;;;;;;7.37;5.93;;;14.50;99.90;;;;;;5095475;28;20204;-82
2023/05/21 05:14:39;;;;;;;6.97;5.57;;;14.60;99.90;;;;;;5095506;28;20200;-80
2023/05/21 05:17:08;;;;;;;6.20;5.60;;;14.60;99.90;;;;;;5094972;28;20512;-82
2023/05/21 05:19:35;;;;;;;6.77;5.57;;;14.70;99.90;;;;;;5095867;28;20250;-81
2023/05/21 05:22:04;;;;;;;6.20;5.27;;;14.80;99.90;;;;;;5095455;28;20201;-81
2023/05/21 05:24:31;;;;;;;9.40;5.93;;;14.80;99.90;;;;;;5095433;28;20311;-82
2023/05/21 05:26:58;;;;;;;7.40;5.50;;;14.90;99.90;;;;;;5095742;28;20204;-81
2023/05/21 05:29:25;;;;;;;11.83;6.07;;;14.90;99.90;;;;;;5095879;28;20223;-81
2023/05/21 05:31:51;;;;;;;7.73;5.27;;;14.90;99.90;;;;;;5095519;28;20197;-81
2023/05/21 05:34:19;;;;;;;6.80;5.33;;;15.00;99.90;;;;;;5096077;28;20203;-79
2023/05/21 05:36:45;;;;;;;7.03;5.22;;;15.00;99.90;;;;;;5110791;28;20196;-82
2023/05/21 05:39:14;;;;;;;8.95;5.82;;;15.00;99.90;;;;;;5115956;28;20226;-80
2023/05/21 05:41:41;;;;;;;8.60;5.65;;;15.10;99.90;;;;;;5104255;28;20232;-79
2023/05/21 05:44:07;;;;;;;7.38;5.75;;;15.10;99.90;;;;;;5109862;28;20259;-82
2023/05/21 05:46:34;;;;;;;8.02;5.68;;;15.10;99.90;;;;;;5115368;28;20195;-81
2023/05/21 05:49:01;;;;;;;9.05;5.50;;;15.20;99.90;;;;;;5103532;28;20287;-82
2023/05/21 05:51:29;;;;;;;8.27;5.93;;;15.20;99.90;;;;;;5094977;28;20612;-82
2023/05/21 05:53:55;;;;;;;7.70;5.80;;;15.30;99.90;;;;;;5094932;28;20660;-82
2023/05/21 05:56:24;;;;;;;6.03;4.90;;;15.30;99.90;;;;;;5115052;28;20219;-82
2023/05/21 05:58:50;;;;;;;7.22;5.88;;;15.30;99.90;;;;;;5115507;28;20280;-81
2023/05/21 06:01:18;;;;;;;6.57;5.40;;;15.40;99.90;;;;;;5115078;28;20204;-81
2023/05/21 06:03:46;;;;;;;6.90;5.55;;;15.40;99.90;;;;;;5114220;28;20255;-82
2023/05/21 06:06:12;;;;;;;7.45;5.55;;;15.50;99.90;;;;;;5115071;28;20734;-82
2023/05/21 06:08:40;;;;;;;6.85;5.72;;;15.60;99.90;;;;;;5115946;28;20192;-82
2023/05/21 06:11:07;;;;;;;7.50;5.68;;;15.70;99.90;;;;;;5094791;28;20240;-84
2023/05/21 06:13:35;;;;;;;7.88;5.60;;;15.80;99.90;;;;;;5095420;28;20287;-81
2023/05/21 06:16:02;;;;;;;10.05;5.68;;;15.90;99.90;;;;;;5095239;28;20219;-81
2023/05/21 06:18:29;;;;;;;6.80;5.40;;;16.10;99.90;;;;;;5110212;28;20200;-80
2023/05/21 06:20:56;;;;;;;6.20;5.38;;;16.20;99.90;;;;;;5109372;28;20552;-81
2023/05/21 06:23:23;;;;;;;8.98;5.97;;;16.30;99.90;;;;;;5094450;28;20604;-82
2023/05/21 06:25:50;;;;;;;10.88;6.40;;;16.50;99.90;;;;;;5109775;28;20291;-83
2023/05/21 06:28:17;;;;;;;6.25;4.90;;;16.70;99.90;;;;;;5113871;28;20283;-83
2023/05/21 06:30:45;;;;;;;7.50;5.65;;;16.90;99.90;;;;;;5097481;28;20206;-82
2023/05/21 06:33:12;;;;;;;7.05;5.25;;;17.10;99.90;;;;;;5115520;28;20195;-83
2023/05/21 06:35:39;;;;;;;7.82;5.53;;;17.20;99.90;;;;;;5115388;28;20196;-82
2023/05/21 06:38:06;;;;;;;8.68;5.75;;;17.30;99.90;;;;;;5098716;28;20711;-84
2023/05/21 06:40:35;;;;;;;7.10;4.57;;;17.60;99.90;;;;;;5107890;28;20525;-83
2023/05/21 06:43:03;;;;;;;9.27;5.38;;;17.70;99.90;;;;;;5115480;28;20191;-84
2023/05/21 06:45:30;;;;;;;7.65;4.82;;;17.80;99.90;;;;;;5095567;28;20708;-81
2023/05/21 06:47:58;;;;;;;7.93;5.03;;;17.80;99.90;;;;;;5094299;28;20490;-80
2023/05/21 06:50:25;;;;;;;8.32;5.15;;;17.90;99.90;;;;;;5094746;28;20235;-82
2023/05/21 06:52:53;;;;;;;9.88;5.68;;;17.60;99.90;;;;;;5095312;28;20205;-83
2023/05/21 06:55:20;;;;;;;7.57;5.18;;;17.50;99.90;;;;;;5094315;28;20192;-81
2023/05/21 06:57:46;;;;;;;9.80;5.03;;;17.30;99.90;;;;;;5094369;28;20211;-84
2023/05/21 07:00:14;;;;;;;6.60;4.78;;;17.30;99.90;;;;;;5092851;28;20490;-83
2023/05/21 07:02:41;;;;;;;9.20;5.25;;;17.20;99.90;;;;;;5093054;28;20692;-82
2023/05/21 07:05:10;;;;;;;7.50;5.20;;;17.10;99.90;;;;;;5093491;28;20516;-82
2023/05/21 07:07:37;;;;;;;9.52;5.10;;;17.00;99.90;;;;;;5093221;28;20201;-81
2023/05/21 07:10:04;;;;;;;9.35;5.00;;;17.00;99.90;;;;;;5092986;28;20205;-84
2023/05/21 07:12:31;;;;;;;9.45;5.03;;;17.10;99.90;;;;;;5093826;28;20205;-83
2023/05/21 07:14:59;;;;;;;11.20;5.13;;;17.10;99.90;;;;;;5094114;28;20239;-82
2023/05/21 07:17:26;;;;;;;8.77;5.10;;;17.20;99.90;;;;;;5107898;28;20660;-82
2023/05/21 07:19:53;;;;;;;9.10;5.63;;;17.20;99.90;;;;;;5114867;28;20801;-85
2023/05/21 07:22:21;;;;;;;7.10;5.10;;;17.20;99.90;;;;;;5114195;28;20230;-82
2023/05/21 07:24:48;;;;;;;7.13;4.63;;;17.10;99.90;;;;;;5113317;28;20250;-84
2023/05/21 07:27:15;;;;;;;8.32;5.35;;;17.20;99.90;;;;;;5113913;28;20231;-81
2023/05/21 07:29:42;;;;;;;8.38;5.15;;;17.20;99.90;;;;;;5110341;28;20278;-79
2023/05/21 07:32:09;;;;;;;11.98;5.72;;;17.20;99.90;;;;;;5105880;28;20195;-83
2023/05/21 07:34:36;;;;;;;7.57;5.10;;;17.10;99.90;;;;;;5114063;28;20644;-83
2023/05/21 07:37:03;;;;;;;8.13;5.78;;;17.30;99.90;;;;;;5114035;28;20199;-82
2023/05/21 07:39:31;;;;;;;9.25;5.10;;;17.20;99.90;;;;;;5114160;28;20296;-81
2023/05/21 07:41:58;;;;;;;7.25;4.63;;;17.20;99.90;;;;;;5113834;28;20206;-83
2023/05/21 07:44:25;;;;;;;9.32;5.32;;;17.20;99.90;;;;;;5094089;28;20255;-82
2023/05/21 07:46:52;;;;;;;8.30;4.78;;;17.30;99.90;;;;;;5093438;28;20203;-83
2023/05/21 07:49:19;;;;;;;7.97;5.65;;;17.30;99.90;;;;;;5093283;28;20201;-81
2023/05/21 07:51:46;;;;;;;7.05;5.18;;;17.30;99.90;;;;;;5093981;28;20616;-82
2023/05/21 07:54:13;;;;;;;8.93;6.68;;;17.30;99.90;;;;;;5093574;28;20197;-84
2023/05/21 07:56:41;;;;;;;9.75;5.65;;;17.30;99.90;;;;;;5093374;28;20204;-82
2023/05/21 07:59:08;;;;;;;6.63;5.53;;;17.40;99.90;;;;;;5093457;28;20240;-83
2023/05/21 08:01:36;;;;;;;9.55;5.15;;;17.30;99.90;;;;;;5093566;28;20207;-80
2023/05/21 08:04:04;;;;;;;8.05;5.20;;;17.40;99.90;;;;;;5093543;28;20223;-84
2023/05/21 08:06:32;;;;;;;9.13;5.22;;;17.40;99.90;;;;;;5093980;28;20201;-81
2023/05/21 08:09:00;;;;;;;9.75;5.60;;;17.60;99.90;;;;;;5093271;28;20200;-82
2023/05/21 08:11:27;;;;;;;7.95;5.97;;;17.60;99.90;;;;;;5092572;28;20197;-82
2023/05/21 08:13:55;;;;;;;6.78;5.80;;;17.60;99.90;;;;;;5094433;28;20423;-85
2023/05/21 08:16:23;;;;;;;7.43;4.85;;;17.70;99.90;;;;;;5092959;28;20679;-83
2023/05/21 08:18:50;;;;;;;7.57;4.88;;;17.90;99.90;;;;;;5093498;28;20193;-82
2023/05/21 08:21:17;;;;;;;7.63;5.43;;;18.20;99.90;;;;;;5094047;28;20307;-83
2023/05/21 08:23:44;;;;;;;6.93;5.22;;;18.30;99.90;;;;;;5092274;28;20580;-85
2023/05/21 08:26:11;;;;;;;10.25;6.10;;;18.30;99.90;;;;;;5092244;28;20528;-82
2023/05/21 08:28:38;;;;;;;10.48;5.93;;;18.40;99.90;;;;;;5093781;28;20207;-83
2023/05/21 08:31:06;;;;;;;11.43;6.00;;;18.20;99.90;;;;;;5093646;28;20204;-86
2023/05/21 08:33:35;;;;;;;9.00;5.72;;;18.10;99.90;;;;;;5093606;28;20211;-87
2023/05/21 08:36:03;;;;;;;8.48;5.47;;;18.30;99.90;;;;;;5094382;28;20212;-83
2023/05/21 08:38:30;;;;;;;7.82;5.57;;;18.40;99.90;;;;;;5102589;28;20216;-87
2023/05/21 08:40:57;;;;;;;7.80;5.82;;;18.40;99.90;;;;;;5113869;28;20603;-86
2023/05/21 08:43:27;;;;;;;10.20;5.65;;;18.40;99.90;;;;;;5113951;28;20207;-83
2023/05/21 08:45:56;;;;;;;7.00;5.78;;;18.50;99.90;;;;;;5113500;28;20629;-83
2023/05/21 08:48:24;;;;;;;7.22;5.32;;;18.40;99.90;;;;;;5113954;28;20196;-84
2023/05/21 08:50:52;;;;;;;5.72;4.95;;;18.60;99.90;;;;;;5113474;28;20286;-85
2023/05/21 08:53:20;;;;;;;8.90;6.00;;;18.60;99.90;;;;;;5106737;28;20688;-83
2023/05/21 08:55:49;;;;;;;8.38;5.70;;;18.70;99.90;;;;;;5103666;28;20509;-87
2023/05/21 08:58:16;;;;;;;7.07;5.50;;;18.80;99.90;;;;;;5105437;28;20282;-87
2023/05/21 09:00:43;;;;;;;6.03;5.30;;;18.90;99.90;;;;;;5102806;28;20207;-84
2023/05/21 09:03:12;;;;;;;7.68;5.55;;;18.90;99.90;;;;;;5101872;28;20218;-84
2023/05/21 09:05:41;;;;;;;9.48;6.10;;;18.90;99.90;;;;;;5108089;28;20250;-85
2023/05/21 09:08:14;;;;;;;10.30;5.65;;;19.00;99.90;;;;;;5110177;28;20204;-84
2023/05/21 09:10:50;;;;;;;8.40;5.88;;;19.30;99.90;;;;;;5112541;28;20184;-86
2023/05/21 09:13:17;;;;;;;6.82;5.45;;;19.40;99.90;;;;;;5111591;28;20513;-86
2023/05/21 09:15:45;;;;;;;10.13;5.55;;;19.50;99.90;;;;;;5111890;28;20204;-85
2023/05/21 09:18:13;;;;;;;6.47;5.45;;;19.40;99.90;;;;;;5105357;28;20753;-82
2023/05/21 09:20:42;;;;;;;8.07;5.07;;;19.40;99.90;;;;;;5111836;28;20329;-85
2023/05/21 09:23:15;;;;;;;12.00;5.50;;;19.40;99.90;;;;;;5112864;28;20203;-83
2023/05/21 09:25:45;;;;;;;8.20;5.07;;;19.50;99.90;;;;;;5113946;28;20227;-87
2023/05/21 09:28:12;;;;;;;7.47;5.25;;;19.60;99.90;;;;;;5116348;28;20212;-87
2023/05/21 09:30:44;;;;;;;10.63;5.15;;;19.80;99.90;;;;;;5116532;28;20208;-86
2023/05/21 09:33:11;;;;;;;7.55;5.00;;;19.80;99.90;;;;;;5116338;28;20195;-86
2023/05/21 09:35:46;;;;;;;5.50;4.70;;;19.90;99.90;;;;;;5095944;28;20193;-88
2023/05/21 09:38:13;;;;;;;8.98;4.88;;;20.00;99.90;;;;;;5098856;28;20206;-83
2023/05/21 09:40:45;;;;;;;9.73;5.18;;;20.00;99.90;;;;;;5108165;28;20693;-83
2023/05/21 09:43:14;;;;;;;7.07;4.75;;;20.30;99.90;;;;;;5110720;28;20208;-83
2023/05/21 09:45:51;;;;;;;9.68;5.72;;;20.50;99.90;;;;;;5109964;28;20232;-85
2023/05/21 09:48:32;;;;;;;4.90;4.38;;;20.80;99.90;;;;;;5116560;28;20589;-85
2023/05/21 09:51:12;;;;;;;6.97;5.05;;;20.80;99.90;;;;;;5095516;28;20674;-83
2023/05/21 09:53:50;;;;;;;6.15;4.60;;;20.70;99.90;;;;;;5095537;28;20619;-80
2023/05/21 09:56:22;;;;;;;6.03;4.63;;;20.60;99.90;;;;;;5095414;28;20611;-82
2023/05/21 09:58:51;;;;;;;6.05;4.90;;;20.60;99.90;;;;;;5094575;28;20189;-81
2023/05/21 10:01:20;;;;;;;5.85;4.68;;;20.60;99.90;;;;;;5094782;28;20206;-82
2023/05/21 10:03:52;;;;;;;6.38;4.10;;;20.70;1.00;;;;;;5095838;28;20296;-83
2023/05/21 10:06:21;;;;;;;6.90;4.70;;;20.90;99.90;;;;;;5096177;28;20213;-83
2023/05/21 10:08:51;;;;;;;5.47;4.57;;;20.70;1.00;;;;;;5116536;28;20200;-83
2023/05/21 10:11:21;;;;;;;6.40;4.97;;;20.50;1.00;;;;;;5116423;28;20207;-83
2023/05/21 10:13:51;;;;;;;6.95;5.25;;;20.50;99.90;;;;;;5112321;28;20287;-86
2023/05/21 10:16:18;;;;;;;7.18;5.00;;;20.50;99.90;;;;;;5113433;28;20196;-84
2023/05/21 10:18:47;;;;;;;6.80;5.28;;;20.50;99.90;;;;;;5110006;28;20204;-85
2023/05/21 10:21:15;;;;;;;8.52;5.47;;;20.50;99.90;;;;;;5108462;28;20196;-86
2023/05/21 10:23:45;;;;;;;5.90;5.30;;;20.60;99.90;;;;;;5115918;28;20270;-81
2023/05/21 10:26:13;;;;;;;6.30;5.50;;;20.70;1.00;;;;;;5106431;28;20324;-88
2023/05/21 10:28:40;;;;;;;8.07;5.22;;;20.70;1.00;;;;;;5096050;28;20262;-85
2023/05/21 10:31:07;;;;;;;9.30;4.97;;;20.80;99.90;;;;;;5095911;28;20299;-82
2023/05/21 10:33:35;;;;;;;6.60;4.70;;;20.90;99.90;;;;;;5095522;28;20656;-83
2023/05/21 10:36:03;;;;;;;8.48;4.70;;;21.00;99.90;;;;;;5095448;28;20208;-82
2023/05/21 10:38:31;;;;;;;5.97;4.53;;;21.10;99.90;;;;;;5094637;28;20197;-80
2023/05/21 10:41:01;;;;;;;8.02;5.40;;;21.10;99.90;;;;;;5094449;28;20197;-81
2023/05/21 10:43:41;;;;;;;7.10;4.95;;;20.90;1.00;;;;;;5094912;28;20200;-81
2023/05/21 10:47:00;;;;;;;5.47;4.28;;;20.80;99.90;;;;;;5094746;28;20243;-87
2023/05/21 10:49:50;;;;;;;6.80;5.20;;;20.70;99.90;;;;;;5012697;28;20210;-83
2023/05/21 10:52:45;;;;;;;8.15;4.78;;;20.70;99.90;;;;;;5094839;28;20390;-82
2023/05/21 10:55:23;;;;;;;7.93;4.93;;;20.90;99.90;;;;;;5087393;28;20201;-81
2023/05/21 10:58:29;;;;;;;8.13;5.05;;;20.80;99.90;;;;;;5094108;28;20316;-84
2023/05/21 11:00:56;;;;;;;7.75;4.35;;;21.00;99.90;;;;;;5093376;28;20333;-82
2023/05/21 11:03:23;;;;;;;7.78;4.65;;;21.00;99.90;;;;;;5093598;28;20216;-80
2023/05/21 11:05:55;;;;;;;7.15;4.70;;;21.10;99.90;;;;;;5093759;28;20243;-78
2023/05/21 11:08:24;;;;;;;6.90;5.03;;;20.90;99.90;;;;;;5093264;28;20203;-82
2023/05/21 11:10:56;;;;;;;6.97;4.20;;;21.10;99.90;;;;;;5101869;28;20283;-82
2023/05/21 11:13:26;;;;;;;6.10;4.38;;;21.00;99.90;;;;;;5108878;28;20199;-80
2023/05/21 11:16:13;;;;;;;5.85;4.30;;;21.10;99.90;;;;;;5113373;28;20589;-81
2023/05/21 11:19:02;;;;;;;4.93;4.40;;;21.10;99.90;;;;;;5114044;28;20249;-81
2023/05/21 11:21:31;;;;;;;11.93;5.05;;;21.20;99.90;;;;;;5093539;28;20203;-85
2023/05/21 11:24:02;;;;;;;8.25;4.60;;;21.00;99.90;;;;;;5093976;28;20196;-82
2023/05/21 11:26:30;;;;;;;5.63;4.22;;;20.90;99.90;;;;;;5093927;28;20221;-84
2023/05/21 11:29:11;;;;;;;9.15;4.60;;;20.90;99.90;;;;;;5093377;28;20200;-81
2023/05/21 11:31:38;;;;;;;5.50;3.80;;;21.10;99.90;;;;;;5093101;28;20222;-80
2023/05/21 11:34:12;;;;;;;5.25;4.47;;;21.20;99.90;;;;;;5093638;28;20197;-82
2023/05/21 11:36:40;;;;;;;6.32;4.40;;;21.30;1.00;;;;;;5092928;28;20197;-82
2023/05/21 11:39:11;;;;;;;6.55;4.57;;;21.50;23.50;;;;;;5093666;28;20254;-84
2023/05/21 11:41:57;;;;;;;7.03;4.90;;;21.60;32.90;;;;;;5093141;28;20204;-81
2023/05/21 11:44:42;;;;;;;6.40;4.00;;;21.70;99.90;;;;;;5093207;28;20243;-85
2023/05/21 11:47:11;;;;;;;6.53;4.40;;;21.50;99.90;;;;;;5092221;28;20218;-80
2023/05/21 11:49:39;;;;;;;7.88;4.30;;;21.50;99.90;;;;;;5091732;28;20204;-80
2023/05/21 11:52:07;;;;;;;4.90;4.40;;;21.40;99.90;;;;;;5095946;28;20207;-81
2023/05/21 11:54:40;;;;;;;5.85;4.25;;;21.40;99.90;;;;;;5112094;28;20206;-82
2023/05/21 11:57:07;;;;;;;6.43;4.53;;;21.60;99.90;;;;;;5112074;28;20184;-80
2023/05/21 11:59:35;;;;;;;6.38;4.40;;;21.80;99.90;;;;;;5112283;28;20245;-81
2023/05/21 12:02:04;;;;;;;5.47;4.50;;;21.90;99.90;;;;;;5111861;28;20199;-83
2023/05/21 12:04:30;;;;;;;6.60;4.07;;;21.90;99.90;;;;;;5112917;28;20200;-84
2023/05/21 12:06:58;;;;;;;5.78;4.25;;;21.80;99.90;;;;;;5105312;28;20223;-83
2023/05/21 12:09:25;;;;;;;5.80;4.60;;;21.70;99.90;;;;;;5093347;28;20204;-86
2023/05/21 12:11:52;;;;;;;5.05;4.00;;;21.60;99.90;;;;;;5093208;28;20499;-82
2023/05/21 12:14:18;;;;;;;5.10;4.30;;;21.70;99.90;;;;;;5095366;28;20207;-85
2023/05/21 12:16:45;;;;;;;8.02;4.80;;;21.50;99.90;;;;;;5114261;28;20519;-82
2023/05/21 12:19:18;;;;;;;6.13;4.45;;;21.40;99.90;;;;;;5113953;28;20203;-82
2023/05/21 12:21:45;;;;;;;6.40;4.22;;;21.20;99.90;;;;;;5114070;28;20183;-80
2023/05/21 12:24:12;;;;;;;6.55;4.32;;;21.40;99.90;;;;;;5107235;28;20201;-86
2023/05/21 12:26:40;;;;;;;6.63;4.45;;;21.50;99.90;;;;;;5093025;28;20500;-81
2023/05/21 12:29:08;;;;;;;6.63;4.65;;;21.70;99.90;;;;;;5093245;28;20786;-81
2023/05/21 12:31:47;;;;;;;5.78;4.65;;;21.70;99.90;;;;;;5093255;28;20192;-83
2023/05/21 12:34:17;;;;;;;6.60;4.68;;;21.70;99.90;;;;;;5093334;28;20196;-80
2023/05/21 12:36:48;;;;;;;10.20;4.93;;;21.80;99.90;;;;;;5100538;28;20271;-85
2023/05/21 12:39:15;;;;;;;6.40;5.32;;;21.70;1.00;;;;;;5105669;28;20204;-84
2023/05/21 12:41:43;;;;;;;5.25;4.43;;;21.70;99.90;;;;;;5093204;28;20795;-81
2023/05/21 12:44:11;;;;;;;5.28;4.78;;;21.70;99.90;;;;;;5100343;22;20325;-81
2023/05/21 12:46:38;;;;;;;9.90;5.18;;;21.70;99.90;;;;;;5092431;28;20224;-82
2023/05/21 12:49:05;;;;;;;6.20;4.97;;;21.60;99.90;;;;;;5093348;28;20318;-86
2023/05/21 12:51:40;;;;;;;5.88;4.55;;;21.50;99.90;;;;;;5093443;28;20510;-82
2023/05/21 12:54:12;;;;;;;6.32;4.63;;;21.70;99.90;;;;;;5093215;28;20263;-84